チャーチル の空港の天気 - METARとTAF

チャーチル空港 ( CYYQ / YYQ ) - カナダ マニトバ州Churchill
飛行場実況気象(Metar)
観測時間02/17 08:00 CST (02/17 14:00 UTC)
風向・風速北北西 8m/s 瞬間風速11m/s
視程9650m
天気現象高い地吹雪
少しの雲 雲底高度 7620m
気温-31℃
湿度75%
気圧1032.9hPa
METARCYYQ 171400Z 33016G22KT 6SM BLSN FEW250 M31/M34 A3048 RMK BLSN1CI1 SLP329
過去の天気等 Google飛行場航空写真 Wunderground天気予報

過去48時間のMETAR

飛行場予報(TAF)
発表時間: 2/17 05:38 CST (2/17 11:38 UTC)
予報対象時間: 17日6時 CST ~ 18日6時 CST
風向・風速北北西 9m/s
視程10km以上
なし
17日6時 CST ~ 18日6時 CST に一時的に
視程8050m
天気現象細氷 高い地吹雪
TAF CYYQ 171138Z 1712/1812 33018KT P6SM SKC
TEMPO 1712/1812 5SM IC BLSN RMK NXT FCST BY 171800Z